SBOSBO KEF / BIKF
Speedbird OnlineSpeedbird Online KEF / BIKF

Keflavik International Airport
11:37 2°C

Location Keflavik, Iceland
Latitude: 63.985000610352
Longitude: -22.605600357056
Local Time 11:37 on 12 Apr 2024
UTC 0 hours (Atlantic/Reykjavik)
Currency £1 equals ISK 176.13
METAR BIKF 121100Z 35021KT 9999 FEW025 BKN031 02/M01 Q0995
TAF TAF BIKF 120750Z 1209/1309 36015KT 9999 BKN025 TX05/1214Z TNM03/1306Z TEMPO 1209/1211 BKN008
Weather As Of 12 Apr 2024 11:37
Description Broken clouds
Wind 39 km/h from North (350°)
Cloud Cover 75%
Precipitation Rain: none, Snow: none
Sunrise 06:08
Sunset 20:53
NOTAM 4 active NOTAM
Rotations During the last 90 days there were
100 flights from LHR
104 flights to LHR
Lounges Icelandair Saga Lounge , Top floor between gates A and C
Web Airport Website | Wikipedia
Codes IATA: KEF
ICAO: BIKF
Altitude 52 Meter / 171 Feet
Distance 1,915 KM / 1,190 Miles
from London.
Runways
RunwayLength (m)Surface
013054Asphalt
103065Asphalt
193054Asphalt
283065Asphalt
Radio
TypeDescriptionFrequency
A/GAIR GND131.9
APPAPP119.3
ATISATIS128.3
DEPDEP119.3
GNDGND121.9
OPSBASE OPS129
PMSVPMSV METRO125
TWRTWR118.3
Live ATC



Support Speedbird Online

© 2017-2024 Speedbird Online